Savannah, Ohio
Current Conditions -  °F | °C
As of 5:28 AM on Thursday 23 Oct 2014 (Local Time) from KMFD Reporting Station
Haze Haze  
Wind Chill: 36°   Ceiling: 200
Heat Index: 41°   Visibility: 1.7mi
Dew Point: 41°   Wind: 7mph
Humidity: 100%   Direction: 300°WNW
Pressure: 30.22"   Gusts: NA
Location:  40.97°N, 82.37°W
Report Text: KMFD 230928Z 30006KT 1 3/4SM BR BKN002 OVC006 05/05 A3022 RMK AO2 T00500050
Loading
Personal Weather Stations






























Interactive Weather Map
Tropical Storm Tracking
New forecast layout! Learn more

10-Day Weather Forecast

Advertisements
Track Severe Weather on mobile